BONDI22 YWLM-YWLM
Flight info
| Callsign | BONDI22 |
|---|---|
| Flight time | N/A |
| Altitude | 39000 |
| Route | IFFEY |
| Aircraft | C17/H-SDE1E2FGHIJ5RTUWXY/LB1D1 |
Departure
| Time | 2026-04-26 09:52 |
|---|---|
| Airport | Newcastle Airport (YWLM) |
Arrival
| Time | N/A |
|---|---|
| Airport | Newcastle Airport (YWLM) |
| Time | Latitude | Longitude | Altitude | Speed | Heading |
|---|---|---|---|---|---|
| 2026-04-26 09:23 | -32.79470 | 151.84100 | 30 ft | 0 kts | 60° |
| 2026-04-26 09:24 | -32.79458 | 151.84125 | 30 ft | 3 kts | 51° |
| 2026-04-26 09:24 | -32.79456 | 151.84127 | 30 ft | 1 kts | 42° |
| 2026-04-26 09:25 | -32.79455 | 151.84128 | 30 ft | 1 kts | 32° |
| 2026-04-26 09:25 | -32.79411 | 151.84076 | 30 ft | 7 kts | 257° |
| 2026-04-26 09:25 | -32.79428 | 151.84037 | 29 ft | 5 kts | 235° |
| 2026-04-26 09:26 | -32.79470 | 151.83968 | 30 ft | 10 kts | 233° |
| 2026-04-26 09:26 | -32.79510 | 151.83904 | 30 ft | 9 kts | 233° |
| 2026-04-26 09:26 | -32.79544 | 151.83849 | 30 ft | 8 kts | 234° |
| 2026-04-26 09:27 | -32.79541 | 151.83701 | 30 ft | 13 kts | 311° |
| 2026-04-26 09:27 | -32.79484 | 151.83626 | 30 ft | 11 kts | 310° |
| 2026-04-26 09:27 | -32.79438 | 151.83561 | 30 ft | 10 kts | 310° |
| 2026-04-26 09:27 | -32.79399 | 151.83506 | 29 ft | 8 kts | 310° |
| 2026-04-26 09:28 | -32.79366 | 151.83458 | 30 ft | 7 kts | 310° |
| 2026-04-26 09:28 | -32.79338 | 151.83419 | 30 ft | 6 kts | 310° |
| 2026-04-26 09:28 | -32.79316 | 151.83388 | 30 ft | 4 kts | 310° |
| 2026-04-26 09:28 | -32.79299 | 151.83365 | 30 ft | 3 kts | 310° |
| 2026-04-26 09:29 | -32.79287 | 151.83348 | 29 ft | 2 kts | 310° |
| 2026-04-26 09:29 | -32.79263 | 151.83315 | 30 ft | 12 kts | 310° |
| 2026-04-26 09:29 | -32.79210 | 151.83242 | 30 ft | 11 kts | 311° |
| 2026-04-26 09:29 | -32.79164 | 151.83179 | 30 ft | 9 kts | 311° |
| 2026-04-26 09:30 | -32.79125 | 151.83125 | 29 ft | 8 kts | 310° |
| 2026-04-26 09:30 | -32.79092 | 151.83079 | 30 ft | 7 kts | 310° |
| 2026-04-26 09:30 | -32.79064 | 151.83040 | 30 ft | 5 kts | 310° |
| 2026-04-26 09:30 | -32.79042 | 151.83010 | 30 ft | 4 kts | 310° |
| 2026-04-26 09:31 | -32.79026 | 151.82987 | 29 ft | 3 kts | 310° |
| 2026-04-26 09:31 | -32.78992 | 151.82938 | 30 ft | 11 kts | 310° |
| 2026-04-26 09:31 | -32.78947 | 151.82875 | 30 ft | 9 kts | 310° |
| 2026-04-26 09:31 | -32.78909 | 151.82821 | 29 ft | 8 kts | 310° |
| 2026-04-26 09:32 | -32.78877 | 151.82776 | 30 ft | 6 kts | 310° |
| 2026-04-26 09:32 | -32.78851 | 151.82740 | 29 ft | 5 kts | 310° |
| 2026-04-26 09:32 | -32.78830 | 151.82710 | 30 ft | 4 kts | 310° |
| 2026-04-26 09:32 | -32.78813 | 151.82687 | 30 ft | 3 kts | 310° |
| 2026-04-26 09:33 | -32.78802 | 151.82671 | 29 ft | 2 kts | 310° |
| 2026-04-26 09:33 | -32.78783 | 151.82641 | 30 ft | 2 kts | 291° |
| 2026-04-26 09:33 | -32.78784 | 151.82612 | 30 ft | 7 kts | 255° |
| 2026-04-26 09:34 | -32.78829 | 151.82551 | 30 ft | 0 kts | 220° |
| 2026-04-26 09:49 | -32.78851 | 151.82530 | 30 ft | 7 kts | 214° |
| 2026-04-26 09:50 | -32.78889 | 151.82521 | 29 ft | 5 kts | 166° |
| 2026-04-26 09:50 | -32.78916 | 151.82542 | 30 ft | 0 kts | 130° |
| 2026-04-26 09:50 | -32.79018 | 151.82685 | 30 ft | 61 kts | 130° |
| 2026-04-26 09:51 | -32.79471 | 151.83318 | 31 ft | 138 kts | 130° |
| 2026-04-26 09:51 | -32.80128 | 151.84245 | 247 ft | 184 kts | 130° |
| 2026-04-26 09:51 | -32.80502 | 151.84779 | 449 ft | 203 kts | 129° |
| 2026-04-26 09:51 | -32.81059 | 151.85556 | 549 ft | 208 kts | 129° |
| 2026-04-26 09:52 | -32.81608 | 151.86313 | 669 ft | 193 kts | 137° |
| 2026-04-26 09:52 | -32.82885 | 151.86514 | 1042 ft | 216 kts | 203° |
| 2026-04-26 09:53 | -32.83784 | 151.85011 | 1112 ft | 246 kts | 272° |
| 2026-04-26 09:53 | -32.82953 | 151.83195 | 930 ft | 259 kts | 312° |
| 2026-04-26 09:53 | -32.81866 | 151.81636 | 897 ft | 226 kts | 311° |
| 2026-04-26 09:53 | -32.80956 | 151.80340 | 1018 ft | 188 kts | 312° |
| 2026-04-26 09:54 | -32.80138 | 151.79119 | 1060 ft | 191 kts | 311° |
| 2026-04-26 09:54 | -32.79220 | 151.78099 | 1210 ft | 175 kts | 346° |
| 2026-04-26 09:54 | -32.78040 | 151.78381 | 1116 ft | 183 kts | 39° |
| 2026-04-26 09:54 | -32.77517 | 151.79598 | 1045 ft | 169 kts | 84° |
| 2026-04-26 09:55 | -32.77708 | 151.80767 | 815 ft | 147 kts | 114° |
| 2026-04-26 09:55 | -32.78330 | 151.81716 | 345 ft | 145 kts | 130° |
| 2026-04-26 09:55 | -32.78952 | 151.82588 | 48 ft | 131 kts | 129° |
| 2026-04-26 09:55 | -32.79524 | 151.83391 | 98 ft | 146 kts | 130° |
| 2026-04-26 09:56 | -32.80293 | 151.84455 | 297 ft | 185 kts | 130° |
| 2026-04-26 09:56 | -32.81229 | 151.85788 | 676 ft | 231 kts | 129° |
| 2026-04-26 09:56 | -32.82649 | 151.86845 | 838 ft | 272 kts | 178° |
| 2026-04-26 09:56 | -32.84155 | 151.85642 | 1112 ft | 279 kts | 255° |
| 2026-04-26 09:57 | -32.83528 | 151.83520 | 1416 ft | 289 kts | 310° |
| 2026-04-26 09:57 | -32.82331 | 151.81679 | 1169 ft | 274 kts | 310° |
| 2026-04-26 09:57 | -32.81180 | 151.79969 | 1053 ft | 256 kts | 311° |
| 2026-04-26 09:57 | -32.80155 | 151.78483 | 1038 ft | 203 kts | 313° |
| 2026-04-26 09:58 | -32.79145 | 151.77627 | 1114 ft | 180 kts | 346° |
| 2026-04-26 09:58 | -32.77950 | 151.77800 | 1183 ft | 175 kts | 28° |
| 2026-04-26 09:58 | -32.77084 | 151.78821 | 1154 ft | 169 kts | 66° |
| 2026-04-26 09:58 | -32.77199 | 151.80160 | 886 ft | 162 kts | 118° |
| 2026-04-26 09:59 | -32.77899 | 151.81134 | 463 ft | 151 kts | 130° |
| 2026-04-26 09:59 | -32.78336 | 151.81729 | 246 ft | 138 kts | 130° |
| 2026-04-26 09:59 | -32.79073 | 151.82760 | 32 ft | 107 kts | 130° |
| 2026-04-26 09:59 | -32.79638 | 151.83573 | 163 ft | 153 kts | 129° |
| 2026-04-26 10:00 | -32.80463 | 151.84715 | 460 ft | 208 kts | 130° |
| 2026-04-26 10:00 | -32.81462 | 151.86058 | 1101 ft | 235 kts | 129° |
| 2026-04-26 10:00 | -32.83045 | 151.86805 | 1419 ft | 277 kts | 188° |
| 2026-04-26 10:00 | -32.84293 | 151.85192 | 1634 ft | 298 kts | 269° |
| 2026-04-26 10:01 | -32.83309 | 151.83036 | 1737 ft | 293 kts | 312° |
| 2026-04-26 10:01 | -32.82130 | 151.81379 | 1587 ft | 243 kts | 314° |
| 2026-04-26 10:01 | -32.81104 | 151.79943 | 1401 ft | 215 kts | 313° |
| 2026-04-26 10:01 | -32.80148 | 151.78575 | 1355 ft | 206 kts | 313° |
| 2026-04-26 10:02 | -32.79196 | 151.77614 | 1470 ft | 166 kts | 350° |
| 2026-04-26 10:02 | -32.78071 | 151.77837 | 1371 ft | 182 kts | 30° |
| 2026-04-26 10:02 | -32.77323 | 151.78911 | 1298 ft | 174 kts | 69° |
| 2026-04-26 10:02 | -32.77341 | 151.80216 | 1096 ft | 151 kts | 109° |
| 2026-04-26 10:03 | -32.77944 | 151.81202 | 512 ft | 145 kts | 130° |
| 2026-04-26 10:03 | -32.78558 | 151.82046 | 145 ft | 126 kts | 131° |
| 2026-04-26 10:03 | -32.79115 | 151.82823 | 57 ft | 135 kts | 130° |
| 2026-04-26 10:03 | -32.79805 | 151.83792 | 266 ft | 162 kts | 130° |
| 2026-04-26 10:04 | -32.80635 | 151.84954 | 563 ft | 201 kts | 129° |
| 2026-04-26 10:04 | -32.81636 | 151.86296 | 868 ft | 227 kts | 132° |
| 2026-04-26 10:04 | -32.83143 | 151.86870 | 1323 ft | 264 kts | 193° |
| 2026-04-26 10:04 | -32.84274 | 151.85172 | 1432 ft | 276 kts | 271° |
| 2026-04-26 10:05 | -32.83438 | 151.83395 | 1639 ft | 234 kts | 314° |
| 2026-04-26 10:05 | -32.82426 | 151.82000 | 1500 ft | 222 kts | 313° |
| 2026-04-26 10:05 | -32.81450 | 151.80602 | 1502 ft | 213 kts | 313° |
| 2026-04-26 10:05 | -32.80487 | 151.79286 | 1640 ft | 198 kts | 314° |
| 2026-04-26 10:06 | -32.79348 | 151.77939 | 1599 ft | 193 kts | 333° |
| 2026-04-26 10:06 | -32.78098 | 151.77807 | 1431 ft | 180 kts | 25° |
| 2026-04-26 10:06 | -32.77277 | 151.78872 | 1251 ft | 186 kts | 68° |
| 2026-04-26 10:06 | -32.77392 | 151.80337 | 1168 ft | 170 kts | 121° |
| 2026-04-26 10:07 | -32.78134 | 151.81359 | 638 ft | 160 kts | 129° |
| 2026-04-26 10:07 | -32.78754 | 151.82312 | 163 ft | 141 kts | 128° |
| 2026-04-26 10:07 | -32.79151 | 151.82878 | 31 ft | 116 kts | 130° |
| 2026-04-26 10:08 | -32.79614 | 151.83511 | 31 ft | 90 kts | 131° |
| 2026-04-26 10:08 | -32.80073 | 151.84155 | 35 ft | 130 kts | 130° |
| 2026-04-26 10:08 | -32.80784 | 151.85157 | 276 ft | 187 kts | 130° |
| 2026-04-26 10:08 | -32.81732 | 151.86449 | 872 ft | 221 kts | 134° |
| 2026-04-26 10:09 | -32.83111 | 151.86208 | 1543 ft | 258 kts | 240° |
| 2026-04-26 10:09 | -32.83146 | 151.84787 | 1752 ft | 277 kts | 294° |
| 2026-04-26 10:09 | -32.81086 | 151.83444 | 3236 ft | 270 kts | 22° |
| 2026-04-26 10:09 | -32.79750 | 151.85005 | 4134 ft | 263 kts | 50° |
| 2026-04-26 10:10 | -32.78671 | 151.86616 | 4728 ft | 255 kts | 52° |
| 2026-04-26 10:10 | -32.77635 | 151.88354 | 5770 ft | 266 kts | 55° |
| 2026-04-26 10:10 | -32.76583 | 151.90202 | 6949 ft | 275 kts | 55° |
| 2026-04-26 10:10 | -32.75512 | 151.92122 | 8035 ft | 283 kts | 59° |
| 2026-04-26 10:11 | -32.74947 | 151.94374 | 9089 ft | 290 kts | 82° |
| 2026-04-26 10:11 | -32.74678 | 151.96778 | 10173 ft | 297 kts | 83° |
| 2026-04-26 10:11 | -32.74455 | 151.99240 | 11162 ft | 302 kts | 84° |
| 2026-04-26 10:11 | -32.74260 | 152.01745 | 12148 ft | 308 kts | 85° |
| 2026-04-26 10:12 | -32.74076 | 152.04297 | 13153 ft | 313 kts | 85° |
| 2026-04-26 10:12 | -32.73896 | 152.06885 | 14100 ft | 316 kts | 85° |
| 2026-04-26 10:12 | -32.73720 | 152.09472 | 14583 ft | 316 kts | 85° |
| 2026-04-26 10:12 | -32.73542 | 152.12079 | 14793 ft | 325 kts | 85° |
| 2026-04-26 10:13 | -32.73360 | 152.14769 | 14912 ft | 327 kts | 85° |
| 2026-04-26 10:13 | -32.73176 | 152.17448 | 14949 ft | 324 kts | 85° |
| 2026-04-26 10:13 | -32.72988 | 152.20182 | 14972 ft | 346 kts | 85° |
| 2026-04-26 10:13 | -32.72784 | 152.23156 | 14990 ft | 376 kts | 85° |
| 2026-04-26 10:14 | -32.72570 | 152.26280 | 14993 ft | 380 kts | 85° |
| 2026-04-26 10:14 | -32.72354 | 152.29404 | 14998 ft | 379 kts | 85° |
| 2026-04-26 10:14 | -32.72140 | 152.32517 | 14999 ft | 378 kts | 85° |
| 2026-04-26 10:14 | -32.71998 | 152.34574 | 15002 ft | 378 kts | 85° |
| 2026-04-26 10:15 | -32.71841 | 152.38703 | 14997 ft | 378 kts | 91° |
| 2026-04-26 10:15 | -32.71954 | 152.41818 | 15001 ft | 377 kts | 94° |
| 2026-04-26 10:15 | -32.72123 | 152.44927 | 15001 ft | 378 kts | 94° |
| 2026-04-26 10:15 | -32.72314 | 152.48033 | 15001 ft | 378 kts | 94° |
| 2026-04-26 10:16 | -32.72515 | 152.51145 | 15006 ft | 377 kts | 95° |
| 2026-04-26 10:16 | -32.72720 | 152.54254 | 15006 ft | 377 kts | 95° |
| 2026-04-26 10:16 | -32.72925 | 152.57356 | 15006 ft | 377 kts | 95° |
| 2026-04-26 10:16 | -32.73130 | 152.60461 | 15007 ft | 377 kts | 95° |
| 2026-04-26 10:17 | -32.73337 | 152.63561 | 15007 ft | 377 kts | 95° |
| 2026-04-26 10:17 | -32.73541 | 152.66622 | 15005 ft | 377 kts | 95° |
| 2026-04-26 10:17 | -32.73750 | 152.69723 | 15003 ft | 377 kts | 95° |
| 2026-04-26 10:17 | -32.73956 | 152.72827 | 15005 ft | 377 kts | 95° |
| 2026-04-26 10:18 | -32.74162 | 152.75928 | 15004 ft | 377 kts | 95° |
| 2026-04-26 10:18 | -32.74165 | 152.79030 | 15003 ft | 377 kts | 79° |
| 2026-04-26 10:18 | -32.73116 | 152.81876 | 15012 ft | 381 kts | 54° |
| 2026-04-26 10:18 | -32.71135 | 152.83955 | 15018 ft | 385 kts | 33° |
| 2026-04-26 10:19 | -32.68811 | 152.85551 | 15016 ft | 386 kts | 30° |
| 2026-04-26 10:19 | -32.66472 | 152.87022 | 15022 ft | 385 kts | 28° |
| 2026-04-26 10:19 | -32.64083 | 152.88467 | 15012 ft | 385 kts | 28° |
| 2026-04-26 10:19 | -32.61562 | 152.89518 | 15011 ft | 387 kts | 10° |
| 2026-04-26 10:20 | -32.58875 | 152.89341 | 15015 ft | 392 kts | 345° |
| 2026-04-26 10:20 | -32.57218 | 152.88490 | 15017 ft | 395 kts | 329° |
| 2026-04-26 10:20 | -32.54749 | 152.85328 | 15026 ft | 396 kts | 296° |
| 2026-04-26 10:20 | -32.54036 | 152.82195 | 15026 ft | 396 kts | 272° |
| 2026-04-26 10:21 | -32.54182 | 152.80054 | 15022 ft | 395 kts | 256° |
| 2026-04-26 10:21 | -32.55304 | 152.77124 | 15030 ft | 392 kts | 232° |
| 2026-04-26 10:21 | -32.58023 | 152.74384 | 15021 ft | 389 kts | 211° |
| 2026-04-26 10:21 | -32.60317 | 152.72689 | 15009 ft | 389 kts | 209° |
| 2026-04-26 10:22 | -32.62647 | 152.71062 | 14995 ft | 388 kts | 208° |
| 2026-04-26 10:22 | -32.64986 | 152.69469 | 14995 ft | 387 kts | 208° |
| 2026-04-26 10:22 | -32.66538 | 152.68422 | 14992 ft | 387 kts | 208° |
| 2026-04-26 10:22 | -32.68887 | 152.66846 | 14994 ft | 388 kts | 208° |
| 2026-04-26 10:23 | -32.71239 | 152.65271 | 14997 ft | 389 kts | 208° |
| 2026-04-26 10:23 | -32.73596 | 152.63695 | 14993 ft | 388 kts | 208° |
| 2026-04-26 10:23 | -32.75950 | 152.62121 | 14998 ft | 388 kts | 208° |
| 2026-04-26 10:23 | -32.79128 | 152.60213 | 14997 ft | 385 kts | 194° |
| 2026-04-26 10:24 | -32.80903 | 152.59923 | 15003 ft | 382 kts | 177° |
| 2026-04-26 10:24 | -32.83460 | 152.60644 | 15018 ft | 379 kts | 152° |
| 2026-04-26 10:24 | -32.85475 | 152.62547 | 15014 ft | 378 kts | 128° |
| 2026-04-26 10:24 | -32.86631 | 152.65320 | 15028 ft | 377 kts | 103° |
| 2026-04-26 10:25 | -32.86674 | 152.68410 | 15023 ft | 378 kts | 78° |
| 2026-04-26 10:25 | -32.85590 | 152.71248 | 15024 ft | 381 kts | 53° |
| 2026-04-26 10:25 | -32.83597 | 152.73312 | 15032 ft | 384 kts | 33° |
| 2026-04-26 10:25 | -32.81274 | 152.74907 | 15011 ft | 386 kts | 30° |
| 2026-04-26 10:26 | -32.78905 | 152.76400 | 15002 ft | 385 kts | 28° |
| 2026-04-26 10:26 | -32.76527 | 152.77842 | 14994 ft | 384 kts | 28° |
| 2026-04-26 10:26 | -32.74133 | 152.79266 | 14990 ft | 385 kts | 27° |
| 2026-04-26 10:26 | -32.71734 | 152.80682 | 14994 ft | 385 kts | 28° |
| 2026-04-26 10:27 | -32.69364 | 152.82074 | 14997 ft | 385 kts | 28° |
| 2026-04-26 10:27 | -32.66957 | 152.83485 | 15002 ft | 385 kts | 28° |
| 2026-04-26 10:27 | -32.64554 | 152.84892 | 15003 ft | 385 kts | 27° |
| 2026-04-26 10:27 | -32.62112 | 152.86194 | 15001 ft | 386 kts | 18° |
| 2026-04-26 10:28 | -32.59437 | 152.86402 | 15011 ft | 391 kts | 352° |
| 2026-04-26 10:28 | -32.56900 | 152.85247 | 15019 ft | 396 kts | 327° |
| 2026-04-26 10:28 | -32.54964 | 152.82950 | 15019 ft | 397 kts | 303° |